Time;durP1;ratioP1;P1;durP2;ratioP2;P2;SDS_P1;SDS_P2;PMS_P1;PMS_P2;Temp;Humidity;BMP_temperature;BMP_pressure;BME280_temperature;BME280_humidity;BME280_pressure;Samples;Min_cycle;Max_cycle;Signal;HPM_P1;HPM_P2
2022/10/18 00:24:35;;;;;;;8.82;5.63;;;;;;;;;;6041512;23;20030;-91
2022/10/18 00:27:35;;;;;;;10.77;6.43;;;;;;;;;;6003951;23;20029;-88
2022/10/18 00:30:31;;;;;;;6.65;5.88;;;;;;;;;;5984877;23;20030;-88
2022/10/18 00:33:38;;;;;;;23.83;7.93;;;;;;;;;;6084885;23;20141;-89
2022/10/18 00:36:37;;;;;;;8.85;4.80;;;;;;;;;;6054081;23;20025;-89
2022/10/18 00:44:02;;;;;;;4.50;3.53;;;;;;;;;;6058022;23;20019;-94
2022/10/18 00:47:56;;;;;;;;;;;;;;;;;;;;;
2022/10/18 01:04:09;;;;;;;5.03;4.63;;;;;;;;;;5694419;24;20528;-94
2022/10/18 01:07:50;;;;;;;3.42;3.13;;;;;;;;;;5676309;25;20469;-93
2022/10/18 01:16:10;;;;;;;3.35;2.85;;;;;;;;;;5710963;25;20019;-92
2022/10/18 01:20:15;;;;;;;3.47;3.03;;;;;;;;;;5782266;24;20019;-92
2022/10/18 01:33:04;;;;;;;4.85;2.88;;;;;;;;;;5900099;23;20085;-93
2022/10/18 01:36:40;;;;;;;34.33;6.25;;;;;;;;;;5862462;24;20465;-95
2022/10/18 01:50:23;;;;;;;;;;;;;;;;;;;;;
2022/10/18 02:03:07;;;;;;;3.78;3.35;;;;;;;;;;5786842;24;20018;-93
2022/10/18 02:07:08;;;;;;;;;;;;;;;;;;;;;
2022/10/18 02:15:56;;;;;;;;;;;;;;;;;;;;;
2022/10/18 02:20:28;;;;;;;11.15;4.57;;;;;;;;;;5804348;24;20019;-94
2022/10/18 02:29:33;;;;;;;;;;;;;;;;;;;;;
2022/10/18 02:32:52;;;;;;;3.55;3.25;;;;;;;;;;5826243;24;20137;-94
2022/10/18 02:36:13;;;;;;;4.82;3.70;;;;;;;;;;5914856;24;20017;-94
2022/10/18 02:40:03;;;;;;;4.00;3.22;;;;;;;;;;5943549;23;20123;-87
2022/10/18 02:42:58;;;;;;;2.90;2.47;;;;;;;;;;5942464;24;20024;-87
2022/10/18 02:46:38;;;;;;;7.03;3.42;;;;;;;;;;5956836;23;20019;-88
2022/10/18 02:50:23;;;;;;;4.90;3.63;;;;;;;;;;6023220;23;20038;-88
2022/10/18 02:53:54;;;;;;;5.03;3.10;;;;;;;;;;6040866;23;20026;-87
2022/10/18 02:57:08;;;;;;;4.43;3.58;;;;;;;;;;6052944;23;20027;-87
2022/10/18 03:01:06;;;;;;;4.82;3.67;;;;;;;;;;6073592;23;20041;-87
2022/10/18 03:04:32;;;;;;;3.35;2.65;;;;;;;;;;6019377;23;20030;-88
2022/10/18 03:08:15;;;;;;;10.25;4.13;;;;;;;;;;6052458;23;20026;-86
2022/10/18 03:11:29;;;;;;;3.55;3.25;;;;;;;;;;6082020;23;20022;-88
2022/10/18 03:29:17;;;;;;;4.13;3.15;;;;;;;;;;6173290;22;20021;-88
2022/10/18 03:51:32;;;;;;;4.97;4.05;;;;;;;;;;5814039;24;20851;-86
2022/10/18 03:55:48;;;;;;;5.25;4.45;;;;;;;;;;5848625;24;20022;-95
2022/10/18 03:59:41;;;;;;;4.93;4.53;;;;;;;;;;5784808;24;20351;-92
2022/10/18 04:02:56;;;;;;;;;;;;;;;;;;5796501;24;20495;-95
2022/10/18 04:06:41;;;;;;;5.85;3.00;;;;;;;;;;5849659;24;20004;-94
2022/10/18 04:11:11;;;;;;;;;;;;;;;;;;;;;
2022/10/18 04:45:25;;;;;;;4.43;3.70;;;;;;;;;;6174903;22;20033;-92
2022/10/18 04:48:59;;;;;;;;;;;;;;;;;;;;;
2022/10/18 04:52:22;;;;;;;4.07;3.35;;;;;;;;;;6085969;23;20021;-91
2022/10/18 05:11:26;;;;;;;5.78;4.78;;;;;;;;;;6068860;23;20026;-91
2022/10/18 05:14:09;;;;;;;3.63;3.05;;;;;;;;;;6025178;23;20015;-88
2022/10/18 05:26:32;;;;;;;3.03;2.83;;;;;;;;;;6092621;23;20055;-90
2022/10/18 05:29:14;;;;;;;3.70;3.00;;;;;;;;;;6091568;23;20022;-89
2022/10/18 05:51:13;;;;;;;8.00;3.60;;;;;;;;;;6019625;23;20024;-89
2022/10/18 06:11:40;;;;;;;;;;;;;;;;;;;;;
2022/10/18 06:24:26;;;;;;;10.45;3.60;;;;;;;;;;6115704;23;20027;31
2022/10/18 06:28:49;;;;;;;3.92;3.38;;;;;;;;;;5972372;23;20027;-90
2022/10/18 06:50:32;;;;;;;3.65;2.53;;;;;;;;;;5912015;24;20479;-91
2022/10/18 06:53:39;;;;;;;4.47;3.10;;;;;;;;;;5961968;23;20049;-86
2022/10/18 06:56:25;;;;;;;3.75;3.40;;;;;;;;;;5961486;24;20515;-86
2022/10/18 06:58:53;;;;;;;4.90;3.05;;;;;;;;;;5952847;24;20473;-87
2022/10/18 07:01:21;;;;;;;2.58;2.17;;;;;;;;;;5982686;24;20024;-87
2022/10/18 07:03:51;;;;;;;3.95;2.72;;;;;;;;;;5952397;24;20031;-86
2022/10/18 07:06:19;;;;;;;6.18;2.53;;;;;;;;;;5952566;24;20024;-87
2022/10/18 07:08:48;;;;;;;6.35;2.72;;;;;;;;;;5978878;24;20020;-87
2022/10/18 07:11:24;;;;;;;3.15;2.65;;;;;;;;;;5952793;24;20082;-87
2022/10/18 07:13:53;;;;;;;3.75;2.85;;;;;;;;;;5976405;24;20024;-87
2022/10/18 07:16:21;;;;;;;3.63;3.05;;;;;;;;;;5928402;24;20024;-87
2022/10/18 07:18:49;;;;;;;4.40;2.30;;;;;;;;;;5977647;23;20024;-88
2022/10/18 07:21:18;;;;;;;3.70;3.38;;;;;;;;;;5985173;23;20679;-88
2022/10/18 07:23:47;;;;;;;4.57;3.45;;;;;;;;;;6024811;23;20030;-89
2022/10/18 07:26:16;;;;;;;4.40;3.28;;;;;;;;;;6055218;23;20029;-88
2022/10/18 07:28:45;;;;;;;4.50;3.17;;;;;;;;;;6063040;23;20019;-88
2022/10/18 07:31:14;;;;;;;3.50;2.92;;;;;;;;;;6038470;23;20502;-88
2022/10/18 07:33:41;;;;;;;5.13;4.63;;;;;;;;;;6072439;23;20018;-87
2022/10/18 07:36:10;;;;;;;4.03;3.70;;;;;;;;;;6062462;23;20053;-88
2022/10/18 07:38:38;;;;;;;5.68;4.53;;;;;;;;;;6069171;23;20023;-88
2022/10/18 07:41:38;;;;;;;4.22;3.83;;;;;;;;;;6062051;23;20023;-88
2022/10/18 07:44:06;;;;;;;5.63;2.72;;;;;;;;;;6061875;23;20030;-89
2022/10/18 07:46:34;;;;;;;10.82;4.18;;;;;;;;;;6061641;23;20022;-88
2022/10/18 07:49:02;;;;;;;6.03;3.90;;;;;;;;;;6039036;23;20530;-88
2022/10/18 07:51:31;;;;;;;3.20;2.90;;;;;;;;;;6065436;23;20023;-88
2022/10/18 07:53:59;;;;;;;3.03;2.70;;;;;;;;;;6061557;23;20030;-88
2022/10/18 07:56:27;;;;;;;4.50;3.53;;;;;;;;;;6038636;23;20041;-89
2022/10/18 08:03:31;;;;;;;3.78;2.92;;;;;;;;;;6048797;23;20528;-91
2022/10/18 08:05:58;;;;;;;2.38;2.10;;;;;;;;;;6065595;23;20023;-91
2022/10/18 08:08:27;;;;;;;3.88;2.65;;;;;;;;;;6041048;23;20023;-88
2022/10/18 08:11:28;;;;;;;5.78;3.58;;;;;;;;;;6062348;23;20023;-88
2022/10/18 08:13:55;;;;;;;6.68;2.85;;;;;;;;;;6071895;23;20439;-89
2022/10/18 08:16:27;;;;;;;2.08;1.90;;;;;;;;;;6037885;23;20030;-89
2022/10/18 08:18:57;;;;;;;3.75;2.25;;;;;;;;;;6061019;23;20466;-88
2022/10/18 08:21:25;;;;;;;2.65;2.45;;;;;;;;;;6062307;23;20026;-89
2022/10/18 08:23:53;;;;;;;7.95;2.80;;;;;;;;;;6062058;23;20470;-89
2022/10/18 08:26:22;;;;;;;5.20;3.00;;;;;;;;;;6067119;23;20446;-87
2022/10/18 08:28:50;;;;;;;2.65;2.45;;;;;;;;;;6062987;23;20031;-89
2022/10/18 08:31:38;;;;;;;8.50;3.50;;;;;;;;;;6065982;23;20023;-89
2022/10/18 08:34:06;;;;;;;5.22;2.88;;;;;;;;;;6070975;23;20015;-89
2022/10/18 08:36:34;;;;;;;3.25;2.97;;;;;;;;;;6062281;23;20023;-88
2022/10/18 08:39:02;;;;;;;4.07;3.67;;;;;;;;;;6067192;23;20473;-89
2022/10/18 08:42:20;;;;;;;7.72;5.13;;;;;;;;;;6072742;23;20482;-86
2022/10/18 08:49:31;;;;;;;;;;;;;;;;;;;;;
2022/10/18 08:52:57;;;;;;;4.55;3.47;;;;;;;;;;6005398;23;20034;-85
2022/10/18 08:55:55;;;;;;;5.28;3.05;;;;;;;;;;6013684;23;20038;-89
2022/10/18 08:58:26;;;;;;;3.57;2.30;;;;;;;;;;6009569;23;20069;-89
2022/10/18 09:01:14;;;;;;;3.13;2.67;;;;;;;;;;6042505;23;20266;-89
2022/10/18 09:03:55;;;;;;;2.50;2.28;;;;;;;;;;6033469;23;20034;-89
2022/10/18 09:06:23;;;;;;;;;;;;;;;;;;6043017;23;20030;-87
2022/10/18 09:08:54;;;;;;;2.67;2.20;;;;;;;;;;6044463;23;19926;-87
2022/10/18 09:11:24;;;;;;;2.97;2.47;;;;;;;;;;6035285;23;20034;-88
2022/10/18 09:14:11;;;;;;;4.10;3.57;;;;;;;;;;5988863;23;20032;-87
2022/10/18 09:16:42;;;;;;;2.83;2.63;;;;;;;;;;6043187;23;20356;-89
2022/10/18 09:19:12;;;;;;;4.47;3.10;;;;;;;;;;6032621;23;20035;-87
2022/10/18 09:21:53;;;;;;;3.58;2.40;;;;;;;;;;6035142;23;20027;-88
2022/10/18 09:24:26;;;;;;;3.08;2.45;;;;;;;;;;6010526;23;20337;-88
2022/10/18 09:27:01;;;;;;;4.95;3.28;;;;;;;;;;6034209;23;20030;-90
2022/10/18 09:29:40;;;;;;;3.13;2.65;;;;;;;;;;6011042;23;20023;-89
2022/10/18 09:32:08;;;;;;;3.22;2.92;;;;;;;;;;6011422;23;20031;-88
2022/10/18 09:34:41;;;;;;;5.75;4.57;;;;;;;;;;6011681;23;20356;-89
2022/10/18 09:37:15;;;;;;;6.50;2.75;;;;;;;;;;6044753;23;20016;-90
2022/10/18 09:39:45;;;;;;;3.08;2.65;;;;;;;;;;6037170;23;20336;-91
2022/10/18 09:42:25;;;;;;;4.75;3.63;;;;;;;;;;6043958;23;20031;-89
2022/10/18 09:45:05;;;;;;;6.60;3.65;;;;;;;;;;6044752;23;20015;-87
2022/10/18 09:47:33;;;;;;;12.43;7.17;;;;;;;;;;6037543;23;20027;-88
2022/10/18 09:50:03;;;;;;;3.85;3.35;;;;;;;;;;6045203;23;20248;-89
2022/10/18 09:52:36;;;;;;;4.10;2.95;;;;;;;;;;6044164;23;20027;-87
2022/10/18 09:55:16;;;;;;;9.10;3.45;;;;;;;;;;6035923;23;20027;-88
2022/10/18 09:57:46;;;;;;;3.45;3.15;;;;;;;;;;6044508;23;20451;-87
2022/10/18 10:00:25;;;;;;;8.95;3.45;;;;;;;;;;6034320;23;20027;-89
2022/10/18 10:02:53;;;;;;;8.60;2.95;;;;;;;;;;6041582;23;20023;-88
2022/10/18 10:05:21;;;;;;;7.63;3.60;;;;;;;;;;6010032;23;20030;-86
2022/10/18 10:07:49;;;;;;;4.55;2.92;;;;;;;;;;6037544;23;20027;-87
2022/10/18 10:10:21;;;;;;;9.10;3.58;;;;;;;;;;6044302;23;20034;-87
2022/10/18 10:13:01;;;;;;;4.65;2.75;;;;;;;;;;6035304;23;20023;-89
2022/10/18 10:15:29;;;;;;;3.63;2.88;;;;;;;;;;6038221;23;20031;-86
2022/10/18 10:18:26;;;;;;;5.85;3.53;;;;;;;;;;6043217;23;20034;-87
2022/10/18 10:20:55;;;;;;;3.65;2.92;;;;;;;;;;6035029;23;20317;-86
2022/10/18 10:23:27;;;;;;;6.28;3.20;;;;;;;;;;6035454;23;20027;-85
2022/10/18 10:26:00;;;;;;;8.73;4.00;;;;;;;;;;6042594;23;20020;-86
2022/10/18 10:28:30;;;;;;;4.78;3.47;;;;;;;;;;6045877;23;20557;-88
2022/10/18 10:31:16;;;;;;;4.38;3.17;;;;;;;;;;5987874;23;20321;-85
2022/10/18 10:33:47;;;;;;;2.95;2.63;;;;;;;;;;6047894;23;20019;-89
2022/10/18 10:36:19;;;;;;;6.07;2.72;;;;;;;;;;6021110;23;20039;-82
2022/10/18 10:39:03;;;;;;;11.15;3.65;;;;;;;;;;6041988;23;20027;-83
2022/10/18 10:41:31;;;;;;;3.15;2.50;;;;;;;;;;6046711;23;20019;-84
2022/10/18 10:44:04;;;;;;;4.60;3.05;;;;;;;;;;6037420;23;20026;-82
2022/10/18 10:46:36;;;;;;;3.75;3.03;;;;;;;;;;6043060;23;20030;-83
2022/10/18 10:49:04;;;;;;;2.72;2.53;;;;;;;;;;6047209;23;20435;-84
2022/10/18 10:51:56;;;;;;;5.85;2.72;;;;;;;;;;6017706;23;20459;-89
2022/10/18 10:54:43;;;;;;;3.60;3.10;;;;;;;;;;5987889;23;20019;-85
2022/10/18 10:57:23;;;;;;;6.60;2.63;;;;;;;;;;6020474;23;20666;-83
2022/10/18 11:03:51;;;;;;;4.25;3.00;;;;;;;;;;6132083;23;20030;-92
2022/10/18 11:07:17;;;;;;;10.27;3.25;;;;;;;;;;6078623;23;20018;-90
2022/10/18 11:09:59;;;;;;;3.40;2.88;;;;;;;;;;6075110;23;20025;-86
2022/10/18 11:12:39;;;;;;;4.13;2.75;;;;;;;;;;5972413;23;20030;-88
2022/10/18 11:15:11;;;;;;;6.60;3.55;;;;;;;;;;5943447;23;20038;-86
2022/10/18 11:18:16;;;;;;;5.47;3.67;;;;;;;;;;5999439;23;20869;-85
2022/10/18 11:22:19;;;;;;;;;;;;;;;;;;;;;
2022/10/18 11:25:42;;;;;;;3.58;2.95;;;;;;;;;;6082020;23;20411;-84
2022/10/18 11:28:27;;;;;;;3.80;2.83;;;;;;;;;;6122685;23;20029;-92
2022/10/18 11:35:04;;;;;;;2.70;2.50;;;;;;;;;;6126441;23;20037;-89
2022/10/18 11:38:49;;;;;;;4.88;3.20;;;;;;;;;;6051558;23;20037;-91
2022/10/18 12:07:41;;;;;;;3.92;2.67;;;;;;;;;;6123390;23;20026;-83
2022/10/18 12:11:05;;;;;;;;;;;;;;;;;;;;;
2022/10/18 12:14:35;;;;;;;;;;;;;;;;;;;;;
2022/10/18 12:17:42;;;;;;;4.43;2.40;;;;;;;;;;6032752;23;20461;-81
2022/10/18 12:20:59;;;;;;;6.63;2.28;;;;;;;;;;6000269;23;20037;-81
2022/10/18 12:24:40;;;;;;;4.13;2.13;;;;;;;;;;5927133;23;20026;-80
2022/10/18 12:27:39;;;;;;;5.28;2.35;;;;;;;;;;6071823;23;20481;-82
2022/10/18 12:30:14;;;;;;;2.90;2.25;;;;;;;;;;6070425;23;20029;-81
2022/10/18 12:32:43;;;;;;;2.45;2.15;;;;;;;;;;6074665;23;20021;-82
2022/10/18 12:35:42;;;;;;;7.82;3.22;;;;;;;;;;6005773;23;20036;-82
2022/10/18 12:39:00;;;;;;;2.75;2.20;;;;;;;;;;5995834;23;20040;-81
2022/10/18 12:42:13;;;;;;;9.77;2.50;;;;;;;;;;5957010;23;20028;-83
2022/10/18 12:44:45;;;;;;;6.10;2.92;;;;;;;;;;5897696;24;20036;-81
2022/10/18 12:47:21;;;;;;;7.22;3.00;;;;;;;;;;5897957;24;20029;-81
2022/10/18 12:50:16;;;;;;;6.80;2.47;;;;;;;;;;5876222;24;20044;-82
2022/10/18 12:53:11;;;;;;;14.95;3.25;;;;;;;;;;5884120;24;20031;-81
2022/10/18 12:55:55;;;;;;;6.28;4.07;;;;;;;;;;5913671;23;20035;-81
2022/10/18 12:58:25;;;;;;;23.90;5.70;;;;;;;;;;5957064;23;20031;-81
2022/10/18 13:00:54;;;;;;;2.42;2.22;;;;;;;;;;6043354;23;20626;-83
2022/10/18 13:06:58;;;;;;;2.83;2.20;;;;;;;;;;6065580;23;20045;-82
2022/10/18 13:09:34;;;;;;;;;;;;;;;;;;6044590;23;20018;-81
2022/10/18 13:12:11;;;;;;;2.17;1.98;;;;;;;;;;6034431;23;20365;-81
2022/10/18 13:15:07;;;;;;;5.22;2.35;;;;;;;;;;6041857;23;20026;-81
2022/10/18 13:18:51;;;;;;;6.05;3.22;;;;;;;;;;6101136;23;20336;-81
2022/10/18 14:15:04;;;;;;;;;;;;;;;;;;;;;
2022/10/18 15:25:18;;;;;;;3.20;2.38;;;;;;;;;;6102914;23;20043;-83
2022/10/18 15:35:41;;;;;;;3.80;2.22;;;;;;;;;;6095734;23;20037;-84
2022/10/18 15:39:39;;;;;;;6.22;2.33;;;;;;;;;;6103344;23;20033;-84
2022/10/18 15:42:38;;;;;;;7.35;3.40;;;;;;;;;;6058616;23;20026;-83
2022/10/18 15:45:30;;;;;;;9.07;2.50;;;;;;;;;;6071422;23;20018;-83
2022/10/18 15:48:08;;;;;;;7.18;2.00;;;;;;;;;;6083703;23;20029;-84
2022/10/18 15:50:47;;;;;;;5.68;2.47;;;;;;;;;;6071672;23;20349;-83
2022/10/18 15:53:22;;;;;;;2.83;2.63;;;;;;;;;;6071525;23;20079;-83
2022/10/18 16:04:56;;;;;;;;;;;;;;;;;;;;;
2022/10/18 16:28:16;;;;;;;5.28;2.92;;;;;;;;;;6090930;23;20072;-85
2022/10/18 16:34:13;;;;;;;18.83;3.88;;;;;;;;;;6041479;23;20021;-85
2022/10/18 16:36:45;;;;;;;2.47;2.28;;;;;;;;;;6066735;23;20686;-85
2022/10/18 16:39:17;;;;;;;9.23;2.35;;;;;;;;;;6025963;23;20022;-85
2022/10/18 16:41:45;;;;;;;2.85;2.65;;;;;;;;;;6052942;23;20212;-85
2022/10/18 16:44:18;;;;;;;5.22;2.15;;;;;;;;;;6066187;23;20026;-84
2022/10/18 16:47:03;;;;;;;6.53;3.03;;;;;;;;;;6067847;23;20027;-86
2022/10/18 16:49:32;;;;;;;10.52;3.38;;;;;;;;;;6043788;23;20022;-85
2022/10/18 16:52:05;;;;;;;6.82;3.92;;;;;;;;;;6005626;23;20034;-84
2022/10/18 16:54:36;;;;;;;7.95;2.40;;;;;;;;;;6042430;23;20045;-85
2022/10/18 16:57:12;;;;;;;5.25;2.67;;;;;;;;;;6019855;23;20045;-85
2022/10/18 16:59:54;;;;;;;4.95;2.47;;;;;;;;;;6054574;23;20026;-86
2022/10/18 17:02:24;;;;;;;10.88;4.78;;;;;;;;;;6017471;23;20050;-85
2022/10/18 17:04:52;;;;;;;4.35;3.17;;;;;;;;;;6019317;23;20018;-85
2022/10/18 17:08:01;;;;;;;5.20;3.33;;;;;;;;;;6054096;23;20346;-86
2022/10/18 17:10:29;;;;;;;7.55;3.55;;;;;;;;;;6103350;23;20030;-84
2022/10/18 17:12:57;;;;;;;13.68;4.53;;;;;;;;;;6080375;23;20030;-82
2022/10/18 17:15:25;;;;;;;4.60;3.55;;;;;;;;;;6073270;23;20025;-83
2022/10/18 17:17:53;;;;;;;9.27;2.83;;;;;;;;;;6080484;23;20014;-85
2022/10/18 17:20:25;;;;;;;5.63;3.87;;;;;;;;;;6066537;23;20026;-85
2022/10/18 17:22:55;;;;;;;5.05;3.42;;;;;;;;;;6046228;23;20022;-87
2022/10/18 17:25:29;;;;;;;4.53;3.88;;;;;;;;;;6022895;23;20030;-88
2022/10/18 17:28:20;;;;;;;10.30;2.75;;;;;;;;;;6088074;23;20027;-87
2022/10/18 17:30:52;;;;;;;4.43;2.92;;;;;;;;;;6045159;23;20551;-84
2022/10/18 17:33:20;;;;;;;10.98;3.60;;;;;;;;;;6068995;23;20037;-86
2022/10/18 17:35:48;;;;;;;4.38;3.70;;;;;;;;;;6068285;23;20026;-85
2022/10/18 17:38:16;;;;;;;10.07;3.10;;;;;;;;;;6091388;23;20445;-86
2022/10/18 17:40:54;;;;;;;7.13;3.77;;;;;;;;;;6046115;23;20018;-85
2022/10/18 17:43:27;;;;;;;7.07;3.55;;;;;;;;;;6058856;23;20052;-86
2022/10/18 17:45:56;;;;;;;6.18;3.20;;;;;;;;;;6102348;23;20018;-84
2022/10/18 17:48:23;;;;;;;4.53;3.30;;;;;;;;;;6102606;23;20026;-83
2022/10/18 17:50:51;;;;;;;4.18;3.65;;;;;;;;;;6098984;23;20022;-84
2022/10/18 17:53:21;;;;;;;5.78;3.75;;;;;;;;;;6103440;23;20018;-85
2022/10/18 17:55:49;;;;;;;10.73;3.30;;;;;;;;;;6093641;23;20026;-85
2022/10/18 17:58:17;;;;;;;5.25;3.60;;;;;;;;;;6099339;23;20022;-86
2022/10/18 18:00:45;;;;;;;7.57;3.67;;;;;;;;;;6116149;23;20018;-86
2022/10/18 18:03:12;;;;;;;4.30;3.33;;;;;;;;;;6096196;23;20031;-86
2022/10/18 18:05:40;;;;;;;5.68;3.92;;;;;;;;;;6068321;23;20022;-86
2022/10/18 18:08:08;;;;;;;6.00;3.47;;;;;;;;;;6115583;23;20038;-85
2022/10/18 18:10:36;;;;;;;8.95;3.58;;;;;;;;;;6067446;23;20026;-85
2022/10/18 18:13:04;;;;;;;11.40;4.05;;;;;;;;;;6103461;23;20022;-85
2022/10/18 18:15:31;;;;;;;3.70;3.00;;;;;;;;;;6115867;23;20037;-85
2022/10/18 18:17:59;;;;;;;8.63;4.30;;;;;;;;;;6100637;23;20025;-86
2022/10/18 18:20:27;;;;;;;3.40;2.95;;;;;;;;;;6068136;23;20018;-86
2022/10/18 18:22:55;;;;;;;7.25;3.42;;;;;;;;;;6067696;23;20358;-85
2022/10/18 18:25:55;;;;;;;9.63;5.30;;;;;;;;;;6103165;23;20065;-89
2022/10/18 18:28:25;;;;;;;6.70;5.03;;;;;;;;;;5946651;23;20945;-84
2022/10/18 18:30:55;;;;;;;3.25;2.92;;;;;;;;;;5994017;23;20030;-86
2022/10/18 18:33:25;;;;;;;4.90;3.33;;;;;;;;;;6012306;23;20019;-85
2022/10/18 18:36:02;;;;;;;10.93;5.85;;;;;;;;;;6038296;23;20023;-87
2022/10/18 18:38:33;;;;;;;6.93;4.13;;;;;;;;;;6015136;23;20080;-86
2022/10/18 18:41:07;;;;;;;12.90;5.50;;;;;;;;;;6017250;23;20023;-86
2022/10/18 18:43:39;;;;;;;5.18;3.58;;;;;;;;;;6027995;23;20031;-86
2022/10/18 18:50:18;;;;;;;9.18;4.13;;;;;;;;;;6057059;23;20022;-86
2022/10/18 19:20:24;;;;;;;4.60;3.95;;;;;;;;;;6083497;23;20704;-87
